sensor_id;sensor_type;location;lat;lon;timestamp;temperature;humidity
26691;DHT22;14307;51.718;8.938;2023-04-25T00:01:20;5.20;99.90
26691;DHT22;14307;51.718;8.938;2023-04-25T00:03:46;5.20;99.90
26691;DHT22;14307;51.718;8.938;2023-04-25T00:06:14;5.20;99.90
26691;DHT22;14307;51.718;8.938;2023-04-25T00:08:41;5.20;99.90
26691;DHT22;14307;51.718;8.938;2023-04-25T00:11:08;5.20;99.90
26691;DHT22;14307;51.718;8.938;2023-04-25T00:13:34;5.20;99.90
26691;DHT22;14307;51.718;8.938;2023-04-25T00:16:01;5.30;99.90
26691;DHT22;14307;51.718;8.938;2023-04-25T00:18:29;5.30;99.90
26691;DHT22;14307;51.718;8.938;2023-04-25T00:20:56;5.30;99.90
26691;DHT22;14307;51.718;8.938;2023-04-25T00:23:22;5.20;99.90
26691;DHT22;14307;51.718;8.938;2023-04-25T00:25:50;5.30;99.90
26691;DHT22;14307;51.718;8.938;2023-04-25T00:28:17;5.30;99.90
26691;DHT22;14307;51.718;8.938;2023-04-25T00:30:44;5.30;99.90
26691;DHT22;14307;51.718;8.938;2023-04-25T00:33:11;5.30;99.90
26691;DHT22;14307;51.718;8.938;2023-04-25T00:35:38;5.40;99.90
26691;DHT22;14307;51.718;8.938;2023-04-25T00:38:05;5.40;99.90
26691;DHT22;14307;51.718;8.938;2023-04-25T00:40:31;5.40;99.90
26691;DHT22;14307;51.718;8.938;2023-04-25T00:42:58;5.40;99.90
26691;DHT22;14307;51.718;8.938;2023-04-25T00:45:28;5.40;99.90
26691;DHT22;14307;51.718;8.938;2023-04-25T00:47:56;5.40;99.90
26691;DHT22;14307;51.718;8.938;2023-04-25T00:50:24;5.40;99.90
26691;DHT22;14307;51.718;8.938;2023-04-25T00:52:51;5.50;99.90
26691;DHT22;14307;51.718;8.938;2023-04-25T00:55:19;5.50;99.90
26691;DHT22;14307;51.718;8.938;2023-04-25T00:57:46;5.50;99.90
26691;DHT22;14307;51.718;8.938;2023-04-25T01:00:13;5.40;99.90
26691;DHT22;14307;51.718;8.938;2023-04-25T01:02:41;5.40;99.90
26691;DHT22;14307;51.718;8.938;2023-04-25T01:05:09;5.40;99.90
26691;DHT22;14307;51.718;8.938;2023-04-25T01:07:35;5.40;99.90
26691;DHT22;14307;51.718;8.938;2023-04-25T01:10:03;5.50;99.90
26691;DHT22;14307;51.718;8.938;2023-04-25T01:12:30;5.40;99.90
26691;DHT22;14307;51.718;8.938;2023-04-25T01:14:57;5.40;99.90
26691;DHT22;14307;51.718;8.938;2023-04-25T01:17:24;5.40;99.90
26691;DHT22;14307;51.718;8.938;2023-04-25T01:19:50;5.40;99.90
26691;DHT22;14307;51.718;8.938;2023-04-25T01:22:18;5.30;99.90
26691;DHT22;14307;51.718;8.938;2023-04-25T01:24:45;5.30;99.90
26691;DHT22;14307;51.718;8.938;2023-04-25T01:27:13;5.30;99.90
26691;DHT22;14307;51.718;8.938;2023-04-25T01:29:40;5.30;99.90
26691;DHT22;14307;51.718;8.938;2023-04-25T01:32:07;5.30;99.90
26691;DHT22;14307;51.718;8.938;2023-04-25T01:34:34;5.30;99.90
26691;DHT22;14307;51.718;8.938;2023-04-25T01:37:01;5.30;99.90
26691;DHT22;14307;51.718;8.938;2023-04-25T01:39:28;5.20;99.90
26691;DHT22;14307;51.718;8.938;2023-04-25T01:41:55;5.20;99.90
26691;DHT22;14307;51.718;8.938;2023-04-25T01:44:23;5.10;99.90
26691;DHT22;14307;51.718;8.938;2023-04-25T01:46:50;5.10;99.90
26691;DHT22;14307;51.718;8.938;2023-04-25T01:49:16;5.10;99.90
26691;DHT22;14307;51.718;8.938;2023-04-25T01:51:44;5.10;99.90
26691;DHT22;14307;51.718;8.938;2023-04-25T01:54:11;5.00;99.90
26691;DHT22;14307;51.718;8.938;2023-04-25T01:56:39;4.90;99.90
26691;DHT22;14307;51.718;8.938;2023-04-25T01:59:09;4.80;99.90
26691;DHT22;14307;51.718;8.938;2023-04-25T02:01:35;4.90;99.90
26691;DHT22;14307;51.718;8.938;2023-04-25T02:04:20;4.80;99.90
26691;DHT22;14307;51.718;8.938;2023-04-25T02:06:47;4.90;99.90
26691;DHT22;14307;51.718;8.938;2023-04-25T02:09:15;4.90;99.90
26691;DHT22;14307;51.718;8.938;2023-04-25T02:11:46;4.80;99.90
26691;DHT22;14307;51.718;8.938;2023-04-25T02:14:51;4.90;99.90
26691;DHT22;14307;51.718;8.938;2023-04-25T02:17:25;4.90;99.90
26691;DHT22;14307;51.718;8.938;2023-04-25T02:19:52;4.90;99.90
26691;DHT22;14307;51.718;8.938;2023-04-25T02:22:19;4.80;99.90
26691;DHT22;14307;51.718;8.938;2023-04-25T02:24:46;4.80;99.90
26691;DHT22;14307;51.718;8.938;2023-04-25T02:27:13;4.80;99.90
26691;DHT22;14307;51.718;8.938;2023-04-25T02:29:40;4.80;99.90
26691;DHT22;14307;51.718;8.938;2023-04-25T02:32:09;4.80;99.90
26691;DHT22;14307;51.718;8.938;2023-04-25T02:34:35;4.90;99.90
26691;DHT22;14307;51.718;8.938;2023-04-25T02:37:03;4.80;99.90
26691;DHT22;14307;51.718;8.938;2023-04-25T02:39:29;4.80;99.90
26691;DHT22;14307;51.718;8.938;2023-04-25T02:41:56;4.80;99.90
26691;DHT22;14307;51.718;8.938;2023-04-25T02:44:23;4.90;99.90
26691;DHT22;14307;51.718;8.938;2023-04-25T02:46:49;4.80;99.90
26691;DHT22;14307;51.718;8.938;2023-04-25T02:49:16;4.80;99.90
26691;DHT22;14307;51.718;8.938;2023-04-25T02:51:43;4.70;99.90
26691;DHT22;14307;51.718;8.938;2023-04-25T02:54:10;4.80;99.90
26691;DHT22;14307;51.718;8.938;2023-04-25T02:56:40;4.80;99.90
26691;DHT22;14307;51.718;8.938;2023-04-25T02:59:12;4.70;99.90
26691;DHT22;14307;51.718;8.938;2023-04-25T03:01:42;4.80;99.90
26691;DHT22;14307;51.718;8.938;2023-04-25T03:04:09;4.90;99.90
26691;DHT22;14307;51.718;8.938;2023-04-25T03:06:36;4.90;99.90
26691;DHT22;14307;51.718;8.938;2023-04-25T03:09:03;4.90;99.90
26691;DHT22;14307;51.718;8.938;2023-04-25T03:11:30;4.90;99.90
26691;DHT22;14307;51.718;8.938;2023-04-25T03:13:57;4.90;99.90
26691;DHT22;14307;51.718;8.938;2023-04-25T03:16:24;4.90;99.90
26691;DHT22;14307;51.718;8.938;2023-04-25T03:18:51;4.90;99.90
26691;DHT22;14307;51.718;8.938;2023-04-25T03:21:17;4.90;99.90
26691;DHT22;14307;51.718;8.938;2023-04-25T03:23:44;4.90;99.90
26691;DHT22;14307;51.718;8.938;2023-04-25T03:26:11;4.90;99.90
26691;DHT22;14307;51.718;8.938;2023-04-25T03:28:38;4.90;99.90
26691;DHT22;14307;51.718;8.938;2023-04-25T03:31:06;4.90;99.90
26691;DHT22;14307;51.718;8.938;2023-04-25T03:33:33;5.00;99.90
26691;DHT22;14307;51.718;8.938;2023-04-25T03:36:00;4.90;99.90
26691;DHT22;14307;51.718;8.938;2023-04-25T03:38:28;5.00;99.90
26691;DHT22;14307;51.718;8.938;2023-04-25T03:40:54;5.00;99.90
26691;DHT22;14307;51.718;8.938;2023-04-25T03:43:44;5.00;99.90
26691;DHT22;14307;51.718;8.938;2023-04-25T03:46:12;5.00;99.90
26691;DHT22;14307;51.718;8.938;2023-04-25T03:48:41;5.00;99.90
26691;DHT22;14307;51.718;8.938;2023-04-25T03:51:09;5.00;99.90
26691;DHT22;14307;51.718;8.938;2023-04-25T03:53:40;5.00;99.90
26691;DHT22;14307;51.718;8.938;2023-04-25T03:56:19;5.00;99.90
26691;DHT22;14307;51.718;8.938;2023-04-25T03:58:52;5.00;99.90
26691;DHT22;14307;51.718;8.938;2023-04-25T04:01:23;5.00;99.90
26691;DHT22;14307;51.718;8.938;2023-04-25T04:03:49;5.10;99.90
26691;DHT22;14307;51.718;8.938;2023-04-25T04:06:17;5.00;99.90
26691;DHT22;14307;51.718;8.938;2023-04-25T04:08:48;5.00;99.90
26691;DHT22;14307;51.718;8.938;2023-04-25T04:11:14;4.90;99.90
26691;DHT22;14307;51.718;8.938;2023-04-25T04:13:41;4.90;99.90
26691;DHT22;14307;51.718;8.938;2023-04-25T04:16:08;4.90;99.90
26691;DHT22;14307;51.718;8.938;2023-04-25T04:18:35;4.80;99.90
26691;DHT22;14307;51.718;8.938;2023-04-25T04:21:02;4.80;99.90
26691;DHT22;14307;51.718;8.938;2023-04-25T04:23:32;4.80;99.90
26691;DHT22;14307;51.718;8.938;2023-04-25T04:25:59;4.80;99.90
26691;DHT22;14307;51.718;8.938;2023-04-25T04:28:44;4.80;99.90
26691;DHT22;14307;51.718;8.938;2023-04-25T04:31:17;4.70;99.90
26691;DHT22;14307;51.718;8.938;2023-04-25T04:33:46;4.70;99.90
26691;DHT22;14307;51.718;8.938;2023-04-25T04:36:14;4.60;99.90
26691;DHT22;14307;51.718;8.938;2023-04-25T04:38:42;4.70;99.90
26691;DHT22;14307;51.718;8.938;2023-04-25T04:41:17;4.60;99.90
26691;DHT22;14307;51.718;8.938;2023-04-25T04:44:02;4.60;99.90
26691;DHT22;14307;51.718;8.938;2023-04-25T04:46:44;4.60;99.90
26691;DHT22;14307;51.718;8.938;2023-04-25T04:49:39;4.70;99.90
26691;DHT22;14307;51.718;8.938;2023-04-25T04:52:24;4.60;99.90
26691;DHT22;14307;51.718;8.938;2023-04-25T04:54:58;4.70;99.90
26691;DHT22;14307;51.718;8.938;2023-04-25T04:57:40;4.70;99.90
26691;DHT22;14307;51.718;8.938;2023-04-25T05:00:21;4.80;99.90
26691;DHT22;14307;51.718;8.938;2023-04-25T05:03:14;4.70;99.90
26691;DHT22;14307;51.718;8.938;2023-04-25T05:06:02;4.70;99.90
26691;DHT22;14307;51.718;8.938;2023-04-25T05:08:36;4.80;99.90
26691;DHT22;14307;51.718;8.938;2023-04-25T05:11:36;4.70;99.90
26691;DHT22;14307;51.718;8.938;2023-04-25T05:14:18;4.70;99.90
26691;DHT22;14307;51.718;8.938;2023-04-25T05:17:03;4.70;99.90
26691;DHT22;14307;51.718;8.938;2023-04-25T05:19:45;4.70;99.90
26691;DHT22;14307;51.718;8.938;2023-04-25T05:22:22;4.60;99.90
26691;DHT22;14307;51.718;8.938;2023-04-25T05:24:58;4.70;99.90
26691;DHT22;14307;51.718;8.938;2023-04-25T05:27:44;4.60;99.90
26691;DHT22;14307;51.718;8.938;2023-04-25T05:30:22;4.70;99.90
26691;DHT22;14307;51.718;8.938;2023-04-25T05:33:04;4.60;99.90
26691;DHT22;14307;51.718;8.938;2023-04-25T05:35:32;4.70;99.90
26691;DHT22;14307;51.718;8.938;2023-04-25T05:37:59;4.70;99.90
26691;DHT22;14307;51.718;8.938;2023-04-25T05:41:02;4.70;99.90
26691;DHT22;14307;51.718;8.938;2023-04-25T05:43:38;4.70;99.90
26691;DHT22;14307;51.718;8.938;2023-04-25T05:46:19;4.70;99.90
26691;DHT22;14307;51.718;8.938;2023-04-25T05:49:08;4.70;99.90
26691;DHT22;14307;51.718;8.938;2023-04-25T05:51:55;4.70;99.90
26691;DHT22;14307;51.718;8.938;2023-04-25T05:54:38;4.80;99.90
26691;DHT22;14307;51.718;8.938;2023-04-25T05:57:04;4.80;99.90
26691;DHT22;14307;51.718;8.938;2023-04-25T05:59:31;4.80;99.90
26691;DHT22;14307;51.718;8.938;2023-04-25T06:01:58;4.80;99.90
26691;DHT22;14307;51.718;8.938;2023-04-25T06:04:26;4.80;99.90
26691;DHT22;14307;51.718;8.938;2023-04-25T06:06:53;4.90;99.90
26691;DHT22;14307;51.718;8.938;2023-04-25T06:09:21;4.90;99.90
26691;DHT22;14307;51.718;8.938;2023-04-25T06:11:48;4.90;99.90
26691;DHT22;14307;51.718;8.938;2023-04-25T06:14:15;5.00;99.90
26691;DHT22;14307;51.718;8.938;2023-04-25T06:16:46;5.00;99.90
26691;DHT22;14307;51.718;8.938;2023-04-25T06:19:13;5.10;99.90
26691;DHT22;14307;51.718;8.938;2023-04-25T06:21:41;5.00;99.90
26691;DHT22;14307;51.718;8.938;2023-04-25T06:24:08;5.00;99.90
26691;DHT22;14307;51.718;8.938;2023-04-25T06:26:34;5.00;99.90
26691;DHT22;14307;51.718;8.938;2023-04-25T06:29:02;5.00;99.90
26691;DHT22;14307;51.718;8.938;2023-04-25T06:31:29;5.00;99.90
26691;DHT22;14307;51.718;8.938;2023-04-25T06:33:59;5.00;99.90
26691;DHT22;14307;51.718;8.938;2023-04-25T06:36:28;5.00;99.90
26691;DHT22;14307;51.718;8.938;2023-04-25T06:39:01;5.10;99.90
26691;DHT22;14307;51.718;8.938;2023-04-25T06:41:27;5.20;99.90
26691;DHT22;14307;51.718;8.938;2023-04-25T06:43:58;5.20;99.90
26691;DHT22;14307;51.718;8.938;2023-04-25T06:46:48;5.30;99.90
26691;DHT22;14307;51.718;8.938;2023-04-25T06:49:15;5.30;99.90
26691;DHT22;14307;51.718;8.938;2023-04-25T06:51:42;5.30;99.90
26691;DHT22;14307;51.718;8.938;2023-04-25T06:54:09;5.40;99.90
26691;DHT22;14307;51.718;8.938;2023-04-25T06:56:43;5.40;99.90
26691;DHT22;14307;51.718;8.938;2023-04-25T06:59:13;5.40;99.90
26691;DHT22;14307;51.718;8.938;2023-04-25T07:01:40;5.50;99.90
26691;DHT22;14307;51.718;8.938;2023-04-25T07:04:20;5.70;99.90
26691;DHT22;14307;51.718;8.938;2023-04-25T07:06:53;5.50;99.90
26691;DHT22;14307;51.718;8.938;2023-04-25T07:09:27;5.40;99.90
26691;DHT22;14307;51.718;8.938;2023-04-25T07:11:54;5.40;99.90
26691;DHT22;14307;51.718;8.938;2023-04-25T07:14:21;5.40;99.90
26691;DHT22;14307;51.718;8.938;2023-04-25T07:16:48;5.30;99.90
26691;DHT22;14307;51.718;8.938;2023-04-25T07:19:16;5.50;99.90
26691;DHT22;14307;51.718;8.938;2023-04-25T07:21:43;5.60;99.90
26691;DHT22;14307;51.718;8.938;2023-04-25T07:24:10;5.70;99.90
26691;DHT22;14307;51.718;8.938;2023-04-25T07:26:42;5.70;99.90
26691;DHT22;14307;51.718;8.938;2023-04-25T07:29:17;5.50;99.90
26691;DHT22;14307;51.718;8.938;2023-04-25T07:31:43;5.40;99.90
26691;DHT22;14307;51.718;8.938;2023-04-25T07:34:10;5.40;99.90
26691;DHT22;14307;51.718;8.938;2023-04-25T07:36:38;5.50;99.90
26691;DHT22;14307;51.718;8.938;2023-04-25T07:39:04;5.50;99.90
26691;DHT22;14307;51.718;8.938;2023-04-25T07:41:32;5.60;99.90
26691;DHT22;14307;51.718;8.938;2023-04-25T07:43:58;5.60;99.90
26691;DHT22;14307;51.718;8.938;2023-04-25T07:46:26;5.70;99.90
26691;DHT22;14307;51.718;8.938;2023-04-25T07:48:55;5.90;99.90
26691;DHT22;14307;51.718;8.938;2023-04-25T07:51:21;6.10;99.90
26691;DHT22;14307;51.718;8.938;2023-04-25T07:53:51;6.20;99.90
26691;DHT22;14307;51.718;8.938;2023-04-25T07:56:20;6.10;99.90
26691;DHT22;14307;51.718;8.938;2023-04-25T07:58:48;6.20;99.90
26691;DHT22;14307;51.718;8.938;2023-04-25T08:01:17;6.40;99.90
26691;DHT22;14307;51.718;8.938;2023-04-25T08:03:50;6.20;99.90
26691;DHT22;14307;51.718;8.938;2023-04-25T08:06:22;6.00;99.90
26691;DHT22;14307;51.718;8.938;2023-04-25T08:08:59;5.90;99.90
26691;DHT22;14307;51.718;8.938;2023-04-25T08:11:34;5.80;99.90
26691;DHT22;14307;51.718;8.938;2023-04-25T08:14:02;5.70;99.90
26691;DHT22;14307;51.718;8.938;2023-04-25T08:16:28;5.70;99.90
26691;DHT22;14307;51.718;8.938;2023-04-25T08:18:59;5.70;99.90
26691;DHT22;14307;51.718;8.938;2023-04-25T08:21:26;5.70;99.90
26691;DHT22;14307;51.718;8.938;2023-04-25T08:23:56;5.90;99.90
26691;DHT22;14307;51.718;8.938;2023-04-25T08:26:28;6.30;99.90
26691;DHT22;14307;51.718;8.938;2023-04-25T08:28:56;6.50;99.90
26691;DHT22;14307;51.718;8.938;2023-04-25T08:31:22;6.80;99.90
26691;DHT22;14307;51.718;8.938;2023-04-25T08:34:00;6.80;99.90
26691;DHT22;14307;51.718;8.938;2023-04-25T08:36:33;7.00;99.90
26691;DHT22;14307;51.718;8.938;2023-04-25T08:39:16;6.80;99.90
26691;DHT22;14307;51.718;8.938;2023-04-25T08:41:57;6.80;99.90
26691;DHT22;14307;51.718;8.938;2023-04-25T08:44:24;6.70;99.90
26691;DHT22;14307;51.718;8.938;2023-04-25T08:46:52;6.80;99.90
26691;DHT22;14307;51.718;8.938;2023-04-25T08:49:26;7.00;99.90
26691;DHT22;14307;51.718;8.938;2023-04-25T08:51:55;7.10;99.90
26691;DHT22;14307;51.718;8.938;2023-04-25T08:54:27;7.20;99.90
26691;DHT22;14307;51.718;8.938;2023-04-25T08:57:02;7.40;99.90
26691;DHT22;14307;51.718;8.938;2023-04-25T08:59:31;7.40;99.90
26691;DHT22;14307;51.718;8.938;2023-04-25T09:02:00;7.30;99.90
26691;DHT22;14307;51.718;8.938;2023-04-25T09:04:27;7.20;99.90
26691;DHT22;14307;51.718;8.938;2023-04-25T09:06:54;7.00;99.90
26691;DHT22;14307;51.718;8.938;2023-04-25T09:09:21;6.90;99.90
26691;DHT22;14307;51.718;8.938;2023-04-25T09:11:48;6.90;99.90
26691;DHT22;14307;51.718;8.938;2023-04-25T09:14:17;7.20;99.90
26691;DHT22;14307;51.718;8.938;2023-04-25T09:17:01;7.50;99.90
26691;DHT22;14307;51.718;8.938;2023-04-25T09:19:54;7.80;99.90
26691;DHT22;14307;51.718;8.938;2023-04-25T09:22:26;7.80;99.90
26691;DHT22;14307;51.718;8.938;2023-04-25T09:24:52;7.40;99.90
26691;DHT22;14307;51.718;8.938;2023-04-25T09:27:23;7.30;99.90
26691;DHT22;14307;51.718;8.938;2023-04-25T09:29:59;7.30;99.90
26691;DHT22;14307;51.718;8.938;2023-04-25T09:32:31;7.40;99.90
26691;DHT22;14307;51.718;8.938;2023-04-25T09:34:59;7.50;99.90
26691;DHT22;14307;51.718;8.938;2023-04-25T09:37:29;7.70;99.90
26691;DHT22;14307;51.718;8.938;2023-04-25T09:40:15;8.10;99.90
26691;DHT22;14307;51.718;8.938;2023-04-25T09:42:53;8.40;99.90
26691;DHT22;14307;51.718;8.938;2023-04-25T09:45:20;8.20;99.90
26691;DHT22;14307;51.718;8.938;2023-04-25T09:47:47;8.10;99.90
26691;DHT22;14307;51.718;8.938;2023-04-25T09:50:20;7.90;99.90
26691;DHT22;14307;51.718;8.938;2023-04-25T09:53:04;7.50;99.90
26691;DHT22;14307;51.718;8.938;2023-04-25T09:56:00;7.60;99.90
26691;DHT22;14307;51.718;8.938;2023-04-25T09:58:29;7.40;99.90
26691;DHT22;14307;51.718;8.938;2023-04-25T10:01:04;7.30;99.90
26691;DHT22;14307;51.718;8.938;2023-04-25T10:03:40;7.30;99.90
26691;DHT22;14307;51.718;8.938;2023-04-25T10:06:22;7.30;99.90
26691;DHT22;14307;51.718;8.938;2023-04-25T10:08:51;7.40;99.90
26691;DHT22;14307;51.718;8.938;2023-04-25T10:11:20;7.60;99.90
26691;DHT22;14307;51.718;8.938;2023-04-25T10:13:50;8.10;99.90
26691;DHT22;14307;51.718;8.938;2023-04-25T10:16:17;8.70;99.90
26691;DHT22;14307;51.718;8.938;2023-04-25T10:18:45;8.90;99.90
26691;DHT22;14307;51.718;8.938;2023-04-25T10:21:12;9.10;99.90
26691;DHT22;14307;51.718;8.938;2023-04-25T10:23:40;8.80;99.90
26691;DHT22;14307;51.718;8.938;2023-04-25T10:26:07;8.60;99.90
26691;DHT22;14307;51.718;8.938;2023-04-25T10:28:59;8.50;99.90
26691;DHT22;14307;51.718;8.938;2023-04-25T10:31:27;8.30;99.90
26691;DHT22;14307;51.718;8.938;2023-04-25T10:33:56;8.10;99.90
26691;DHT22;14307;51.718;8.938;2023-04-25T10:36:23;8.10;99.90
26691;DHT22;14307;51.718;8.938;2023-04-25T10:38:51;8.20;99.90
26691;DHT22;14307;51.718;8.938;2023-04-25T10:41:20;8.20;99.90
26691;DHT22;14307;51.718;8.938;2023-04-25T10:43:49;8.30;99.90
26691;DHT22;14307;51.718;8.938;2023-04-25T10:46:25;8.40;99.90
26691;DHT22;14307;51.718;8.938;2023-04-25T10:48:57;8.60;99.90
26691;DHT22;14307;51.718;8.938;2023-04-25T10:51:26;8.60;99.90
26691;DHT22;14307;51.718;8.938;2023-04-25T10:54:03;8.70;99.90
26691;DHT22;14307;51.718;8.938;2023-04-25T10:56:36;8.60;99.90
26691;DHT22;14307;51.718;8.938;2023-04-25T10:59:10;8.60;99.90
26691;DHT22;14307;51.718;8.938;2023-04-25T11:01:43;8.40;99.90
26691;DHT22;14307;51.718;8.938;2023-04-25T11:04:30;8.40;99.90
26691;DHT22;14307;51.718;8.938;2023-04-25T11:09:46;8.70;99.90
26691;DHT22;14307;51.718;8.938;2023-04-25T11:12:13;8.70;99.90
26691;DHT22;14307;51.718;8.938;2023-04-25T11:14:40;8.40;99.90
26691;DHT22;14307;51.718;8.938;2023-04-25T11:17:07;8.10;99.90
26691;DHT22;14307;51.718;8.938;2023-04-25T11:19:34;8.20;99.90
26691;DHT22;14307;51.718;8.938;2023-04-25T11:22:02;8.30;99.90
26691;DHT22;14307;51.718;8.938;2023-04-25T11:24:30;8.40;99.90
26691;DHT22;14307;51.718;8.938;2023-04-25T11:27:02;8.70;99.90
26691;DHT22;14307;51.718;8.938;2023-04-25T11:29:31;8.60;99.90
26691;DHT22;14307;51.718;8.938;2023-04-25T11:31:59;8.60;99.90
26691;DHT22;14307;51.718;8.938;2023-04-25T11:34:28;8.70;99.90
26691;DHT22;14307;51.718;8.938;2023-04-25T11:36:57;8.50;99.90
26691;DHT22;14307;51.718;8.938;2023-04-25T11:39:24;8.50;99.90
26691;DHT22;14307;51.718;8.938;2023-04-25T11:41:53;8.40;99.90
26691;DHT22;14307;51.718;8.938;2023-04-25T11:44:20;8.60;99.90
26691;DHT22;14307;51.718;8.938;2023-04-25T11:46:48;8.70;99.90
26691;DHT22;14307;51.718;8.938;2023-04-25T11:49:15;8.70;99.90
26691;DHT22;14307;51.718;8.938;2023-04-25T11:51:45;8.90;99.90
26691;DHT22;14307;51.718;8.938;2023-04-25T11:54:13;8.80;99.90
26691;DHT22;14307;51.718;8.938;2023-04-25T11:56:44;9.00;99.90
26691;DHT22;14307;51.718;8.938;2023-04-25T11:59:12;9.20;99.90
26691;DHT22;14307;51.718;8.938;2023-04-25T12:01:41;8.90;99.90
26691;DHT22;14307;51.718;8.938;2023-04-25T12:04:17;8.90;99.90
26691;DHT22;14307;51.718;8.938;2023-04-25T12:06:46;9.00;99.90
26691;DHT22;14307;51.718;8.938;2023-04-25T12:09:16;8.90;99.90
26691;DHT22;14307;51.718;8.938;2023-04-25T12:11:46;8.80;99.90
26691;DHT22;14307;51.718;8.938;2023-04-25T12:14:27;8.60;99.90
26691;DHT22;14307;51.718;8.938;2023-04-25T12:16:56;8.30;99.90
26691;DHT22;14307;51.718;8.938;2023-04-25T12:19:24;8.20;99.90
26691;DHT22;14307;51.718;8.938;2023-04-25T12:21:52;8.10;99.90
26691;DHT22;14307;51.718;8.938;2023-04-25T12:24:26;8.10;99.90
26691;DHT22;14307;51.718;8.938;2023-04-25T12:27:03;8.10;99.90
26691;DHT22;14307;51.718;8.938;2023-04-25T12:29:32;8.20;99.90
26691;DHT22;14307;51.718;8.938;2023-04-25T12:32:13;8.60;99.90
26691;DHT22;14307;51.718;8.938;2023-04-25T12:34:40;9.20;99.90
26691;DHT22;14307;51.718;8.938;2023-04-25T12:37:07;9.60;99.90
26691;DHT22;14307;51.718;8.938;2023-04-25T12:39:34;10.30;99.90
26691;DHT22;14307;51.718;8.938;2023-04-25T12:42:00;10.80;99.90
26691;DHT22;14307;51.718;8.938;2023-04-25T12:44:27;10.70;99.90
26691;DHT22;14307;51.718;8.938;2023-04-25T12:46:54;10.30;99.90
26691;DHT22;14307;51.718;8.938;2023-04-25T12:49:21;10.20;99.90
26691;DHT22;14307;51.718;8.938;2023-04-25T12:51:48;9.80;99.90
26691;DHT22;14307;51.718;8.938;2023-04-25T12:54:15;9.60;99.90
26691;DHT22;14307;51.718;8.938;2023-04-25T12:56:42;9.70;99.90
26691;DHT22;14307;51.718;8.938;2023-04-25T12:59:09;9.60;99.90
26691;DHT22;14307;51.718;8.938;2023-04-25T13:01:36;9.60;99.90
26691;DHT22;14307;51.718;8.938;2023-04-25T13:04:03;9.70;99.90
26691;DHT22;14307;51.718;8.938;2023-04-25T13:06:30;9.60;99.90
26691;DHT22;14307;51.718;8.938;2023-04-25T13:08:57;9.50;99.90
26691;DHT22;14307;51.718;8.938;2023-04-25T13:11:24;9.60;99.90
26691;DHT22;14307;51.718;8.938;2023-04-25T13:13:51;9.50;99.90
26691;DHT22;14307;51.718;8.938;2023-04-25T13:16:18;9.10;99.90
26691;DHT22;14307;51.718;8.938;2023-04-25T13:18:47;8.80;99.90
26691;DHT22;14307;51.718;8.938;2023-04-25T13:21:14;9.00;99.90
26691;DHT22;14307;51.718;8.938;2023-04-25T13:23:41;9.00;99.90
26691;DHT22;14307;51.718;8.938;2023-04-25T13:26:12;9.10;99.90
26691;DHT22;14307;51.718;8.938;2023-04-25T13:28:39;9.10;99.90
26691;DHT22;14307;51.718;8.938;2023-04-25T13:31:10;9.10;99.90
26691;DHT22;14307;51.718;8.938;2023-04-25T13:33:37;9.10;99.90
26691;DHT22;14307;51.718;8.938;2023-04-25T13:36:04;9.20;99.90
26691;DHT22;14307;51.718;8.938;2023-04-25T13:38:31;9.40;99.90
26691;DHT22;14307;51.718;8.938;2023-04-25T13:40:58;9.90;99.90
26691;DHT22;14307;51.718;8.938;2023-04-25T13:43:25;10.50;99.90
26691;DHT22;14307;51.718;8.938;2023-04-25T13:45:52;10.70;99.90
26691;DHT22;14307;51.718;8.938;2023-04-25T13:48:19;10.30;99.90
26691;DHT22;14307;51.718;8.938;2023-04-25T13:50:46;9.90;99.90
26691;DHT22;14307;51.718;8.938;2023-04-25T13:53:13;10.30;99.90
26691;DHT22;14307;51.718;8.938;2023-04-25T13:55:39;10.60;99.90
26691;DHT22;14307;51.718;8.938;2023-04-25T13:58:06;11.00;99.90
26691;DHT22;14307;51.718;8.938;2023-04-25T14:00:37;10.70;99.90
26691;DHT22;14307;51.718;8.938;2023-04-25T14:03:09;10.40;99.90
26691;DHT22;14307;51.718;8.938;2023-04-25T14:05:36;10.20;99.90
26691;DHT22;14307;51.718;8.938;2023-04-25T14:08:09;10.00;99.90
26691;DHT22;14307;51.718;8.938;2023-04-25T14:10:36;9.80;99.90
26691;DHT22;14307;51.718;8.938;2023-04-25T14:13:04;9.90;99.90
26691;DHT22;14307;51.718;8.938;2023-04-25T14:15:32;9.80;99.90
26691;DHT22;14307;51.718;8.938;2023-04-25T14:18:00;10.00;99.90
26691;DHT22;14307;51.718;8.938;2023-04-25T14:20:27;10.40;99.90
26691;DHT22;14307;51.718;8.938;2023-04-25T14:22:54;10.10;99.90
26691;DHT22;14307;51.718;8.938;2023-04-25T14:25:22;10.10;99.90
26691;DHT22;14307;51.718;8.938;2023-04-25T14:27:49;10.40;99.90
26691;DHT22;14307;51.718;8.938;2023-04-25T14:30:18;10.30;99.90
26691;DHT22;14307;51.718;8.938;2023-04-25T14:32:45;10.00;99.90
26691;DHT22;14307;51.718;8.938;2023-04-25T14:35:12;9.60;99.90
26691;DHT22;14307;51.718;8.938;2023-04-25T14:37:40;9.90;99.90
26691;DHT22;14307;51.718;8.938;2023-04-25T14:40:07;10.30;99.90
26691;DHT22;14307;51.718;8.938;2023-04-25T14:42:37;10.40;99.90
26691;DHT22;14307;51.718;8.938;2023-04-25T14:45:05;10.10;99.90
26691;DHT22;14307;51.718;8.938;2023-04-25T14:47:33;9.80;99.90
26691;DHT22;14307;51.718;8.938;2023-04-25T14:50:00;9.70;99.90
26691;DHT22;14307;51.718;8.938;2023-04-25T14:52:28;9.90;99.90
26691;DHT22;14307;51.718;8.938;2023-04-25T14:54:55;10.30;99.90
26691;DHT22;14307;51.718;8.938;2023-04-25T14:57:22;10.40;99.90
26691;DHT22;14307;51.718;8.938;2023-04-25T14:59:48;10.20;99.90
26691;DHT22;14307;51.718;8.938;2023-04-25T15:02:15;10.00;99.90
26691;DHT22;14307;51.718;8.938;2023-04-25T15:04:42;9.70;99.90
26691;DHT22;14307;51.718;8.938;2023-04-25T15:07:09;9.60;99.90
26691;DHT22;14307;51.718;8.938;2023-04-25T15:09:36;9.40;99.90
26691;DHT22;14307;51.718;8.938;2023-04-25T15:12:03;9.40;99.90
26691;DHT22;14307;51.718;8.938;2023-04-25T15:14:30;9.10;99.90
26691;DHT22;14307;51.718;8.938;2023-04-25T15:16:57;8.70;99.90
26691;DHT22;14307;51.718;8.938;2023-04-25T15:19:23;8.60;99.90
26691;DHT22;14307;51.718;8.938;2023-04-25T15:21:50;8.50;99.90
26691;DHT22;14307;51.718;8.938;2023-04-25T15:24:17;8.60;99.90
26691;DHT22;14307;51.718;8.938;2023-04-25T15:26:44;8.60;99.90
26691;DHT22;14307;51.718;8.938;2023-04-25T15:29:12;8.40;99.90
26691;DHT22;14307;51.718;8.938;2023-04-25T15:31:38;8.50;99.90
26691;DHT22;14307;51.718;8.938;2023-04-25T15:34:05;8.40;99.90
26691;DHT22;14307;51.718;8.938;2023-04-25T15:36:32;8.30;99.90
26691;DHT22;14307;51.718;8.938;2023-04-25T15:38:59;8.20;99.90
26691;DHT22;14307;51.718;8.938;2023-04-25T15:41:26;8.10;99.90
26691;DHT22;14307;51.718;8.938;2023-04-25T15:43:52;7.80;99.90
26691;DHT22;14307;51.718;8.938;2023-04-25T15:46:20;7.70;99.90
26691;DHT22;14307;51.718;8.938;2023-04-25T15:48:50;7.50;99.90
26691;DHT22;14307;51.718;8.938;2023-04-25T15:51:16;7.40;99.90
26691;DHT22;14307;51.718;8.938;2023-04-25T15:53:43;7.30;99.90
26691;DHT22;14307;51.718;8.938;2023-04-25T15:56:10;7.00;99.90
26691;DHT22;14307;51.718;8.938;2023-04-25T15:58:36;7.00;99.90
26691;DHT22;14307;51.718;8.938;2023-04-25T16:01:03;6.90;99.90
26691;DHT22;14307;51.718;8.938;2023-04-25T16:03:31;6.90;99.90
26691;DHT22;14307;51.718;8.938;2023-04-25T16:06:01;6.80;99.90